sensor_id;sensor_type;location;lat;lon;timestamp;P1;durP1;ratioP1;P2;durP2;ratioP2
2542;SDS011;1116;51.502;7.414;2024-02-26T00:00:52;2.93;;;2.63;;
2542;SDS011;1116;51.502;7.414;2024-02-26T00:03:22;3.43;;;2.90;;
2542;SDS011;1116;51.502;7.414;2024-02-26T00:05:58;3.63;;;3.33;;
2542;SDS011;1116;51.502;7.414;2024-02-26T00:08:28;3.20;;;2.70;;
2542;SDS011;1116;51.502;7.414;2024-02-26T00:10:58;4.20;;;2.90;;
2542;SDS011;1116;51.502;7.414;2024-02-26T00:13:28;3.23;;;2.83;;
2542;SDS011;1116;51.502;7.414;2024-02-26T00:15:58;3.00;;;2.70;;
2542;SDS011;1116;51.502;7.414;2024-02-26T00:18:28;2.80;;;2.60;;
2542;SDS011;1116;51.502;7.414;2024-02-26T00:21:01;3.37;;;2.80;;
2542;SDS011;1116;51.502;7.414;2024-02-26T00:23:32;3.60;;;3.30;;
2542;SDS011;1116;51.502;7.414;2024-02-26T00:26:02;3.13;;;2.93;;
2542;SDS011;1116;51.502;7.414;2024-02-26T00:28:32;3.27;;;2.97;;
2542;SDS011;1116;51.502;7.414;2024-02-26T00:31:02;3.77;;;3.00;;
2542;SDS011;1116;51.502;7.414;2024-02-26T00:33:32;3.13;;;2.83;;
2542;SDS011;1116;51.502;7.414;2024-02-26T00:36:06;3.23;;;2.93;;
2542;SDS011;1116;51.502;7.414;2024-02-26T00:38:36;2.93;;;2.73;;
2542;SDS011;1116;51.502;7.414;2024-02-26T00:41:07;3.50;;;3.20;;
2542;SDS011;1116;51.502;7.414;2024-02-26T00:43:37;3.00;;;2.70;;
2542;SDS011;1116;51.502;7.414;2024-02-26T00:46:09;4.43;;;2.83;;
2542;SDS011;1116;51.502;7.414;2024-02-26T00:48:39;2.90;;;2.67;;
2542;SDS011;1116;51.502;7.414;2024-02-26T00:51:15;2.97;;;2.60;;
2542;SDS011;1116;51.502;7.414;2024-02-26T00:53:49;3.37;;;2.97;;
2542;SDS011;1116;51.502;7.414;2024-02-26T00:56:19;3.30;;;3.00;;
2542;SDS011;1116;51.502;7.414;2024-02-26T00:58:50;2.83;;;2.63;;
2542;SDS011;1116;51.502;7.414;2024-02-26T01:01:20;4.40;;;2.80;;
2542;SDS011;1116;51.502;7.414;2024-02-26T01:03:53;3.83;;;3.00;;
2542;SDS011;1116;51.502;7.414;2024-02-26T01:06:25;3.47;;;2.63;;
2542;SDS011;1116;51.502;7.414;2024-02-26T01:08:56;2.63;;;2.30;;
2542;SDS011;1116;51.502;7.414;2024-02-26T01:11:26;3.57;;;3.00;;
2542;SDS011;1116;51.502;7.414;2024-02-26T01:13:56;3.30;;;2.73;;
2542;SDS011;1116;51.502;7.414;2024-02-26T01:16:26;4.07;;;2.70;;
2542;SDS011;1116;51.502;7.414;2024-02-26T01:18:57;3.27;;;2.97;;
2542;SDS011;1116;51.502;7.414;2024-02-26T01:21:30;3.30;;;3.00;;
2542;SDS011;1116;51.502;7.414;2024-02-26T01:24:00;3.50;;;3.20;;
2542;SDS011;1116;51.502;7.414;2024-02-26T01:26:30;2.83;;;2.50;;
2542;SDS011;1116;51.502;7.414;2024-02-26T01:29:00;4.33;;;2.90;;
2542;SDS011;1116;51.502;7.414;2024-02-26T01:31:30;3.37;;;2.70;;
2542;SDS011;1116;51.502;7.414;2024-02-26T01:34:00;2.63;;;2.43;;
2542;SDS011;1116;51.502;7.414;2024-02-26T01:36:33;2.60;;;2.13;;
2542;SDS011;1116;51.502;7.414;2024-02-26T01:39:04;3.00;;;1.97;;
2542;SDS011;1116;51.502;7.414;2024-02-26T01:41:33;3.80;;;2.47;;
2542;SDS011;1116;51.502;7.414;2024-02-26T01:44:04;3.13;;;2.27;;
2542;SDS011;1116;51.502;7.414;2024-02-26T01:46:34;2.23;;;2.03;;
2542;SDS011;1116;51.502;7.414;2024-02-26T01:49:05;2.57;;;2.37;;
2542;SDS011;1116;51.502;7.414;2024-02-26T01:51:41;2.70;;;2.47;;
2542;SDS011;1116;51.502;7.414;2024-02-26T01:54:12;2.40;;;2.20;;
2542;SDS011;1116;51.502;7.414;2024-02-26T01:56:43;2.57;;;2.37;;
2542;SDS011;1116;51.502;7.414;2024-02-26T01:59:13;4.80;;;2.70;;
2542;SDS011;1116;51.502;7.414;2024-02-26T02:01:44;3.27;;;2.70;;
2542;SDS011;1116;51.502;7.414;2024-02-26T02:04:17;2.70;;;2.40;;
2542;SDS011;1116;51.502;7.414;2024-02-26T02:06:50;3.20;;;2.43;;
2542;SDS011;1116;51.502;7.414;2024-02-26T02:09:21;3.73;;;2.40;;
2542;SDS011;1116;51.502;7.414;2024-02-26T02:11:52;2.50;;;2.17;;
2542;SDS011;1116;51.502;7.414;2024-02-26T02:14:22;2.70;;;2.20;;
2542;SDS011;1116;51.502;7.414;2024-02-26T02:16:53;3.33;;;2.57;;
2542;SDS011;1116;51.502;7.414;2024-02-26T02:19:23;3.67;;;2.53;;
2542;SDS011;1116;51.502;7.414;2024-02-26T02:21:56;3.47;;;2.30;;
2542;SDS011;1116;51.502;7.414;2024-02-26T02:24:26;3.20;;;1.90;;
2542;SDS011;1116;51.502;7.414;2024-02-26T02:26:56;3.97;;;1.70;;
2542;SDS011;1116;51.502;7.414;2024-02-26T02:29:26;2.67;;;2.10;;
2542;SDS011;1116;51.502;7.414;2024-02-26T02:31:56;2.67;;;2.13;;
2542;SDS011;1116;51.502;7.414;2024-02-26T02:34:28;2.80;;;2.27;;
2542;SDS011;1116;51.502;7.414;2024-02-26T02:37:01;1.97;;;1.87;;
2542;SDS011;1116;51.502;7.414;2024-02-26T02:39:31;3.43;;;2.27;;
2542;SDS011;1116;51.502;7.414;2024-02-26T02:42:01;2.30;;;1.90;;
2542;SDS011;1116;51.502;7.414;2024-02-26T02:44:32;2.33;;;2.13;;
2542;SDS011;1116;51.502;7.414;2024-02-26T02:47:02;2.30;;;2.10;;
2542;SDS011;1116;51.502;7.414;2024-02-26T02:49:32;2.53;;;2.00;;
2542;SDS011;1116;51.502;7.414;2024-02-26T02:52:06;2.23;;;2.03;;
2542;SDS011;1116;51.502;7.414;2024-02-26T02:54:38;2.20;;;2.00;;
2542;SDS011;1116;51.502;7.414;2024-02-26T02:57:08;3.10;;;2.03;;
2542;SDS011;1116;51.502;7.414;2024-02-26T02:59:39;2.57;;;2.37;;
2542;SDS011;1116;51.502;7.414;2024-02-26T03:02:09;3.13;;;2.50;;
2542;SDS011;1116;51.502;7.414;2024-02-26T03:04:39;1.90;;;1.80;;
2542;SDS011;1116;51.502;7.414;2024-02-26T03:07:12;2.80;;;2.40;;
2542;SDS011;1116;51.502;7.414;2024-02-26T03:09:42;4.07;;;2.27;;
2542;SDS011;1116;51.502;7.414;2024-02-26T03:12:14;2.83;;;2.00;;
2542;SDS011;1116;51.502;7.414;2024-02-26T03:14:44;2.20;;;2.00;;
2542;SDS011;1116;51.502;7.414;2024-02-26T03:17:14;2.50;;;2.30;;
2542;SDS011;1116;51.502;7.414;2024-02-26T03:19:44;2.40;;;2.20;;
2542;SDS011;1116;51.502;7.414;2024-02-26T03:22:22;2.37;;;2.10;;
2542;SDS011;1116;51.502;7.414;2024-02-26T03:24:52;2.33;;;2.03;;
2542;SDS011;1116;51.502;7.414;2024-02-26T03:27:22;2.27;;;2.10;;
2542;SDS011;1116;51.502;7.414;2024-02-26T03:29:52;2.70;;;2.03;;
2542;SDS011;1116;51.502;7.414;2024-02-26T03:32:22;2.90;;;2.17;;
2542;SDS011;1116;51.502;7.414;2024-02-26T03:34:52;2.23;;;2.03;;
2542;SDS011;1116;51.502;7.414;2024-02-26T03:37:26;2.37;;;2.13;;
2542;SDS011;1116;51.502;7.414;2024-02-26T03:39:56;3.00;;;2.23;;
2542;SDS011;1116;51.502;7.414;2024-02-26T03:42:27;2.30;;;1.90;;
2542;SDS011;1116;51.502;7.414;2024-02-26T03:44:57;2.30;;;2.10;;
2542;SDS011;1116;51.502;7.414;2024-02-26T03:47:28;2.27;;;2.07;;
2542;SDS011;1116;51.502;7.414;2024-02-26T03:49:58;1.90;;;1.80;;
2542;SDS011;1116;51.502;7.414;2024-02-26T03:52:33;2.37;;;2.17;;
2542;SDS011;1116;51.502;7.414;2024-02-26T03:55:00;3.17;;;2.00;;
2542;SDS011;1116;51.502;7.414;2024-02-26T03:57:31;2.37;;;2.10;;
2542;SDS011;1116;51.502;7.414;2024-02-26T04:00:01;2.20;;;2.00;;
2542;SDS011;1116;51.502;7.414;2024-02-26T04:02:31;2.30;;;2.10;;
2542;SDS011;1116;51.502;7.414;2024-02-26T04:05:01;3.23;;;2.60;;
2542;SDS011;1116;51.502;7.414;2024-02-26T04:07:34;2.60;;;2.40;;
2542;SDS011;1116;51.502;7.414;2024-02-26T04:10:08;2.87;;;2.47;;
2542;SDS011;1116;51.502;7.414;2024-02-26T04:12:38;2.17;;;2.00;;
2542;SDS011;1116;51.502;7.414;2024-02-26T04:15:10;2.77;;;2.47;;
2542;SDS011;1116;51.502;7.414;2024-02-26T04:17:40;5.40;;;2.23;;
2542;SDS011;1116;51.502;7.414;2024-02-26T04:20:13;4.13;;;3.00;;
2542;SDS011;1116;51.502;7.414;2024-02-26T04:22:47;3.60;;;2.80;;
2542;SDS011;1116;51.502;7.414;2024-02-26T04:25:17;3.27;;;2.80;;
2542;SDS011;1116;51.502;7.414;2024-02-26T04:27:47;3.87;;;2.90;;
2542;SDS011;1116;51.502;7.414;2024-02-26T04:30:17;3.23;;;2.87;;
2542;SDS011;1116;51.502;7.414;2024-02-26T04:32:47;2.80;;;2.60;;
2542;SDS011;1116;51.502;7.414;2024-02-26T04:35:17;2.93;;;2.70;;
2542;SDS011;1116;51.502;7.414;2024-02-26T04:37:50;3.83;;;3.00;;
2542;SDS011;1116;51.502;7.414;2024-02-26T04:40:20;3.47;;;2.50;;
2542;SDS011;1116;51.502;7.414;2024-02-26T04:42:50;2.80;;;2.50;;
2542;SDS011;1116;51.502;7.414;2024-02-26T04:45:20;2.90;;;2.13;;
2542;SDS011;1116;51.502;7.414;2024-02-26T04:47:50;2.87;;;2.23;;
2542;SDS011;1116;51.502;7.414;2024-02-26T04:50:20;4.07;;;2.13;;
2542;SDS011;1116;51.502;7.414;2024-02-26T04:52:53;2.30;;;2.10;;
2542;SDS011;1116;51.502;7.414;2024-02-26T04:55:23;3.80;;;2.50;;
2542;SDS011;1116;51.502;7.414;2024-02-26T04:57:53;3.17;;;2.20;;
2542;SDS011;1116;51.502;7.414;2024-02-26T05:00:23;2.60;;;2.07;;
2542;SDS011;1116;51.502;7.414;2024-02-26T05:02:53;3.97;;;2.50;;
2542;SDS011;1116;51.502;7.414;2024-02-26T05:05:23;2.93;;;2.13;;
2542;SDS011;1116;51.502;7.414;2024-02-26T05:07:56;3.10;;;2.73;;
2542;SDS011;1116;51.502;7.414;2024-02-26T05:10:26;3.20;;;2.50;;
2542;SDS011;1116;51.502;7.414;2024-02-26T05:12:56;3.73;;;2.70;;
2542;SDS011;1116;51.502;7.414;2024-02-26T05:15:26;5.70;;;2.23;;
2542;SDS011;1116;51.502;7.414;2024-02-26T05:17:56;4.97;;;2.60;;
2542;SDS011;1116;51.502;7.414;2024-02-26T05:20:26;2.77;;;2.40;;
2542;SDS011;1116;51.502;7.414;2024-02-26T05:23:00;3.43;;;2.40;;
2542;SDS011;1116;51.502;7.414;2024-02-26T05:25:30;2.90;;;2.60;;
2542;SDS011;1116;51.502;7.414;2024-02-26T05:28:00;3.13;;;2.20;;
2542;SDS011;1116;51.502;7.414;2024-02-26T05:30:30;3.27;;;2.60;;
2542;SDS011;1116;51.502;7.414;2024-02-26T05:33:01;2.97;;;2.77;;
2542;SDS011;1116;51.502;7.414;2024-02-26T05:35:31;3.20;;;2.90;;
2542;SDS011;1116;51.502;7.414;2024-02-26T05:38:04;3.37;;;2.40;;
2542;SDS011;1116;51.502;7.414;2024-02-26T05:40:34;3.80;;;2.70;;
2542;SDS011;1116;51.502;7.414;2024-02-26T05:43:05;3.43;;;2.87;;
2542;SDS011;1116;51.502;7.414;2024-02-26T05:45:35;6.13;;;3.43;;
2542;SDS011;1116;51.502;7.414;2024-02-26T05:48:06;2.90;;;2.60;;
2542;SDS011;1116;51.502;7.414;2024-02-26T05:50:36;3.30;;;2.50;;
2542;SDS011;1116;51.502;7.414;2024-02-26T05:53:09;2.57;;;2.30;;
2542;SDS011;1116;51.502;7.414;2024-02-26T05:55:39;2.60;;;2.40;;
2542;SDS011;1116;51.502;7.414;2024-02-26T05:58:09;2.90;;;2.53;;
2542;SDS011;1116;51.502;7.414;2024-02-26T06:00:41;2.60;;;2.40;;
2542;SDS011;1116;51.502;7.414;2024-02-26T06:03:11;3.03;;;2.40;;
2542;SDS011;1116;51.502;7.414;2024-02-26T06:05:41;2.53;;;2.33;;
2542;SDS011;1116;51.502;7.414;2024-02-26T06:08:15;3.13;;;2.57;;
2542;SDS011;1116;51.502;7.414;2024-02-26T06:10:45;2.63;;;2.43;;
2542;SDS011;1116;51.502;7.414;2024-02-26T06:13:15;2.90;;;2.70;;
2542;SDS011;1116;51.502;7.414;2024-02-26T06:15:45;3.20;;;2.67;;
2542;SDS011;1116;51.502;7.414;2024-02-26T06:18:15;5.57;;;2.97;;
2542;SDS011;1116;51.502;7.414;2024-02-26T06:20:45;2.87;;;2.67;;
2542;SDS011;1116;51.502;7.414;2024-02-26T06:23:18;3.00;;;2.70;;
2542;SDS011;1116;51.502;7.414;2024-02-26T06:25:48;2.60;;;2.40;;
2542;SDS011;1116;51.502;7.414;2024-02-26T06:28:18;5.00;;;2.50;;
2542;SDS011;1116;51.502;7.414;2024-02-26T06:30:48;3.17;;;2.87;;
2542;SDS011;1116;51.502;7.414;2024-02-26T06:33:19;3.43;;;2.73;;
2542;SDS011;1116;51.502;7.414;2024-02-26T06:35:49;3.33;;;2.53;;
2542;SDS011;1116;51.502;7.414;2024-02-26T06:38:22;3.80;;;3.40;;
2542;SDS011;1116;51.502;7.414;2024-02-26T06:40:52;3.30;;;3.10;;
2542;SDS011;1116;51.502;7.414;2024-02-26T06:43:23;4.43;;;2.80;;
2542;SDS011;1116;51.502;7.414;2024-02-26T06:45:53;4.00;;;3.30;;
2542;SDS011;1116;51.502;7.414;2024-02-26T06:48:32;2.80;;;2.60;;
2542;SDS011;1116;51.502;7.414;2024-02-26T06:51:03;3.67;;;2.90;;
2542;SDS011;1116;51.502;7.414;2024-02-26T06:53:36;3.13;;;2.73;;
2542;SDS011;1116;51.502;7.414;2024-02-26T06:56:06;4.60;;;2.90;;
2542;SDS011;1116;51.502;7.414;2024-02-26T06:58:36;3.40;;;3.10;;
2542;SDS011;1116;51.502;7.414;2024-02-26T07:01:06;4.10;;;3.20;;
2542;SDS011;1116;51.502;7.414;2024-02-26T07:03:37;3.60;;;3.17;;
2542;SDS011;1116;51.502;7.414;2024-02-26T07:06:09;4.00;;;3.40;;
2542;SDS011;1116;51.502;7.414;2024-02-26T07:08:42;4.73;;;4.00;;
2542;SDS011;1116;51.502;7.414;2024-02-26T07:11:12;4.87;;;3.33;;
2542;SDS011;1116;51.502;7.414;2024-02-26T07:13:42;3.27;;;2.97;;
2542;SDS011;1116;51.502;7.414;2024-02-26T07:16:12;3.83;;;3.40;;
2542;SDS011;1116;51.502;7.414;2024-02-26T07:18:42;3.53;;;3.00;;
2542;SDS011;1116;51.502;7.414;2024-02-26T07:21:12;3.67;;;3.37;;
2542;SDS011;1116;51.502;7.414;2024-02-26T07:23:45;3.73;;;3.17;;
2542;SDS011;1116;51.502;7.414;2024-02-26T07:26:15;3.33;;;3.03;;
2542;SDS011;1116;51.502;7.414;2024-02-26T07:28:46;4.13;;;2.83;;
2542;SDS011;1116;51.502;7.414;2024-02-26T07:31:17;3.50;;;3.20;;
2542;SDS011;1116;51.502;7.414;2024-02-26T07:33:47;4.00;;;3.20;;
2542;SDS011;1116;51.502;7.414;2024-02-26T07:36:18;6.77;;;3.90;;
2542;SDS011;1116;51.502;7.414;2024-02-26T07:38:51;6.23;;;3.60;;
2542;SDS011;1116;51.502;7.414;2024-02-26T07:41:21;6.17;;;3.60;;
2542;SDS011;1116;51.502;7.414;2024-02-26T07:43:52;4.50;;;3.20;;
2542;SDS011;1116;51.502;7.414;2024-02-26T07:46:22;5.40;;;3.50;;
2542;SDS011;1116;51.502;7.414;2024-02-26T07:48:53;6.53;;;3.30;;
2542;SDS011;1116;51.502;7.414;2024-02-26T07:51:23;4.17;;;3.40;;
2542;SDS011;1116;51.502;7.414;2024-02-26T07:53:56;4.00;;;3.50;;
2542;SDS011;1116;51.502;7.414;2024-02-26T07:56:26;3.30;;;3.00;;
2542;SDS011;1116;51.502;7.414;2024-02-26T07:58:56;3.40;;;3.00;;
2542;SDS011;1116;51.502;7.414;2024-02-26T08:01:26;4.50;;;3.20;;
2542;SDS011;1116;51.502;7.414;2024-02-26T08:03:56;3.60;;;3.30;;
2542;SDS011;1116;51.502;7.414;2024-02-26T08:06:26;3.90;;;3.27;;
2542;SDS011;1116;51.502;7.414;2024-02-26T08:09:02;3.73;;;3.00;;
2542;SDS011;1116;51.502;7.414;2024-02-26T08:11:33;6.73;;;4.13;;
2542;SDS011;1116;51.502;7.414;2024-02-26T08:14:03;5.27;;;3.43;;
2542;SDS011;1116;51.502;7.414;2024-02-26T08:16:33;4.70;;;3.13;;
2542;SDS011;1116;51.502;7.414;2024-02-26T08:19:03;5.50;;;3.73;;
2542;SDS011;1116;51.502;7.414;2024-02-26T08:21:34;4.40;;;3.50;;
2542;SDS011;1116;51.502;7.414;2024-02-26T08:24:07;4.40;;;3.40;;
2542;SDS011;1116;51.502;7.414;2024-02-26T08:26:37;3.50;;;2.90;;
2542;SDS011;1116;51.502;7.414;2024-02-26T08:29:07;4.90;;;3.20;;
2542;SDS011;1116;51.502;7.414;2024-02-26T08:31:37;4.37;;;3.43;;
2542;SDS011;1116;51.502;7.414;2024-02-26T08:34:07;5.20;;;3.50;;
2542;SDS011;1116;51.502;7.414;2024-02-26T08:36:37;4.03;;;3.37;;
2542;SDS011;1116;51.502;7.414;2024-02-26T08:39:13;3.83;;;3.33;;
2542;SDS011;1116;51.502;7.414;2024-02-26T08:41:44;4.03;;;3.63;;
2542;SDS011;1116;51.502;7.414;2024-02-26T08:44:14;3.60;;;3.30;;
2542;SDS011;1116;51.502;7.414;2024-02-26T08:46:44;4.30;;;3.40;;
2542;SDS011;1116;51.502;7.414;2024-02-26T08:49:15;4.27;;;3.60;;
2542;SDS011;1116;51.502;7.414;2024-02-26T08:51:45;4.10;;;3.43;;
2542;SDS011;1116;51.502;7.414;2024-02-26T08:54:19;3.80;;;3.40;;
2542;SDS011;1116;51.502;7.414;2024-02-26T08:56:49;4.73;;;4.23;;
2542;SDS011;1116;51.502;7.414;2024-02-26T08:59:19;4.90;;;4.07;;
2542;SDS011;1116;51.502;7.414;2024-02-26T09:01:49;5.37;;;4.20;;
2542;SDS011;1116;51.502;7.414;2024-02-26T09:04:20;4.07;;;3.67;;
2542;SDS011;1116;51.502;7.414;2024-02-26T09:06:50;3.93;;;3.53;;
2542;SDS011;1116;51.502;7.414;2024-02-26T09:09:23;5.23;;;4.10;;
2542;SDS011;1116;51.502;7.414;2024-02-26T09:11:53;4.57;;;4.10;;
2542;SDS011;1116;51.502;7.414;2024-02-26T09:14:23;4.90;;;4.07;;
2542;SDS011;1116;51.502;7.414;2024-02-26T09:16:54;4.10;;;3.67;;
2542;SDS011;1116;51.502;7.414;2024-02-26T09:19:24;4.80;;;4.00;;
2542;SDS011;1116;51.502;7.414;2024-02-26T09:21:56;5.30;;;4.80;;
2542;SDS011;1116;51.502;7.414;2024-02-26T09:24:29;4.80;;;3.90;;
2542;SDS011;1116;51.502;7.414;2024-02-26T09:26:59;4.73;;;3.67;;
2542;SDS011;1116;51.502;7.414;2024-02-26T09:29:30;4.57;;;4.13;;
2542;SDS011;1116;51.502;7.414;2024-02-26T09:32:00;4.47;;;4.07;;
2542;SDS011;1116;51.502;7.414;2024-02-26T09:34:30;5.30;;;3.80;;
2542;SDS011;1116;51.502;7.414;2024-02-26T09:37:00;6.70;;;4.00;;
2542;SDS011;1116;51.502;7.414;2024-02-26T09:39:46;4.00;;;3.57;;
2542;SDS011;1116;51.502;7.414;2024-02-26T09:42:17;4.77;;;4.33;;
2542;SDS011;1116;51.502;7.414;2024-02-26T09:44:49;4.63;;;4.13;;
2542;SDS011;1116;51.502;7.414;2024-02-26T09:47:23;4.67;;;4.27;;
2542;SDS011;1116;51.502;7.414;2024-02-26T09:49:54;6.73;;;4.90;;
2542;SDS011;1116;51.502;7.414;2024-02-26T09:52:26;6.00;;;5.00;;
2542;SDS011;1116;51.502;7.414;2024-02-26T09:55:00;7.60;;;5.00;;
2542;SDS011;1116;51.502;7.414;2024-02-26T09:57:30;7.50;;;6.70;;
2542;SDS011;1116;51.502;7.414;2024-02-26T10:00:02;7.17;;;6.13;;
2542;SDS011;1116;51.502;7.414;2024-02-26T10:02:34;5.80;;;5.20;;
2542;SDS011;1116;51.502;7.414;2024-02-26T10:05:05;6.50;;;4.90;;
2542;SDS011;1116;51.502;7.414;2024-02-26T10:07:39;6.40;;;4.63;;
2542;SDS011;1116;51.502;7.414;2024-02-26T10:10:16;5.53;;;4.97;;
2542;SDS011;1116;51.502;7.414;2024-02-26T10:12:48;5.13;;;4.63;;
2542;SDS011;1116;51.502;7.414;2024-02-26T10:15:18;6.93;;;4.80;;
2542;SDS011;1116;51.502;7.414;2024-02-26T10:17:48;5.00;;;4.33;;
2542;SDS011;1116;51.502;7.414;2024-02-26T10:20:19;4.77;;;4.30;;
2542;SDS011;1116;51.502;7.414;2024-02-26T10:22:52;5.23;;;4.70;;
2542;SDS011;1116;51.502;7.414;2024-02-26T10:25:25;5.83;;;5.10;;
2542;SDS011;1116;51.502;7.414;2024-02-26T10:27:59;5.40;;;4.30;;
2542;SDS011;1116;51.502;7.414;2024-02-26T10:30:31;5.63;;;5.00;;
2542;SDS011;1116;51.502;7.414;2024-02-26T10:33:05;6.30;;;5.33;;
2542;SDS011;1116;51.502;7.414;2024-02-26T10:35:37;7.90;;;6.73;;
2542;SDS011;1116;51.502;7.414;2024-02-26T10:38:07;7.33;;;6.20;;
2542;SDS011;1116;51.502;7.414;2024-02-26T10:40:40;7.33;;;5.47;;
2542;SDS011;1116;51.502;7.414;2024-02-26T10:43:10;7.30;;;5.20;;
2542;SDS011;1116;51.502;7.414;2024-02-26T10:45:42;6.50;;;5.20;;
2542;SDS011;1116;51.502;7.414;2024-02-26T10:48:14;7.07;;;5.73;;
2542;SDS011;1116;51.502;7.414;2024-02-26T10:50:45;7.30;;;5.10;;
2542;SDS011;1116;51.502;7.414;2024-02-26T10:53:21;7.10;;;5.43;;
2542;SDS011;1116;51.502;7.414;2024-02-26T10:55:55;6.53;;;5.40;;
2542;SDS011;1116;51.502;7.414;2024-02-26T10:58:28;7.87;;;6.20;;
2542;SDS011;1116;51.502;7.414;2024-02-26T11:00:59;7.43;;;5.80;;
2542;SDS011;1116;51.502;7.414;2024-02-26T11:03:30;7.17;;;5.90;;
2542;SDS011;1116;51.502;7.414;2024-02-26T11:06:03;7.63;;;5.90;;
2542;SDS011;1116;51.502;7.414;2024-02-26T11:08:34;10.97;;;6.23;;
2542;SDS011;1116;51.502;7.414;2024-02-26T11:11:07;6.90;;;6.20;;
2542;SDS011;1116;51.502;7.414;2024-02-26T11:13:42;8.63;;;6.97;;
2542;SDS011;1116;51.502;7.414;2024-02-26T11:16:15;7.23;;;5.93;;
2542;SDS011;1116;51.502;7.414;2024-02-26T11:18:47;8.53;;;6.70;;
2542;SDS011;1116;51.502;7.414;2024-02-26T11:21:19;7.27;;;6.20;;
2542;SDS011;1116;51.502;7.414;2024-02-26T11:23:56;10.20;;;7.27;;
2542;SDS011;1116;51.502;7.414;2024-02-26T11:26:29;8.93;;;7.37;;
2542;SDS011;1116;51.502;7.414;2024-02-26T11:29:00;8.00;;;6.40;;
2542;SDS011;1116;51.502;7.414;2024-02-26T11:31:31;7.07;;;5.40;;
2542;SDS011;1116;51.502;7.414;2024-02-26T11:34:03;5.40;;;4.63;;
2542;SDS011;1116;51.502;7.414;2024-02-26T11:36:33;7.27;;;5.10;;
2542;SDS011;1116;51.502;7.414;2024-02-26T11:39:05;5.13;;;4.63;;
2542;SDS011;1116;51.502;7.414;2024-02-26T11:41:38;6.10;;;5.50;;
2542;SDS011;1116;51.502;7.414;2024-02-26T11:44:09;7.10;;;4.83;;
2542;SDS011;1116;51.502;7.414;2024-02-26T11:46:39;5.53;;;5.03;;
2542;SDS011;1116;51.502;7.414;2024-02-26T11:52:00;6.30;;;5.17;;
2542;SDS011;1116;51.502;7.414;2024-02-26T11:54:38;5.70;;;5.20;;
2542;SDS011;1116;51.502;7.414;2024-02-26T11:57:24;5.77;;;4.63;;
2542;SDS011;1116;51.502;7.414;2024-02-26T12:00:10;6.03;;;5.40;;
2542;SDS011;1116;51.502;7.414;2024-02-26T12:02:44;6.00;;;5.40;;
2542;SDS011;1116;51.502;7.414;2024-02-26T12:05:15;6.83;;;6.17;;
2542;SDS011;1116;51.502;7.414;2024-02-26T12:07:48;7.47;;;6.63;;
2542;SDS011;1116;51.502;7.414;2024-02-26T12:10:25;8.40;;;6.60;;
2542;SDS011;1116;51.502;7.414;2024-02-26T12:13:04;8.43;;;7.53;;
2542;SDS011;1116;51.502;7.414;2024-02-26T12:15:44;9.20;;;8.30;;
2542;SDS011;1116;51.502;7.414;2024-02-26T12:18:15;8.27;;;7.47;;
2542;SDS011;1116;51.502;7.414;2024-02-26T12:20:47;9.03;;;7.83;;
2542;SDS011;1116;51.502;7.414;2024-02-26T12:23:29;8.77;;;7.50;;
2542;SDS011;1116;51.502;7.414;2024-02-26T12:25:59;10.67;;;7.83;;
2542;SDS011;1116;51.502;7.414;2024-02-26T12:28:36;8.10;;;7.30;;
2542;SDS011;1116;51.502;7.414;2024-02-26T12:31:06;8.67;;;7.77;;
2542;SDS011;1116;51.502;7.414;2024-02-26T12:33:41;11.63;;;8.40;;
2542;SDS011;1116;51.502;7.414;2024-02-26T12:36:11;10.13;;;7.77;;
2542;SDS011;1116;51.502;7.414;2024-02-26T12:38:42;10.00;;;8.30;;
2542;SDS011;1116;51.502;7.414;2024-02-26T12:41:13;8.13;;;7.33;;
2542;SDS011;1116;51.502;7.414;2024-02-26T12:43:47;10.77;;;7.80;;
2542;SDS011;1116;51.502;7.414;2024-02-26T12:46:17;8.20;;;7.30;;
2542;SDS011;1116;51.502;7.414;2024-02-26T12:48:47;8.67;;;7.57;;
2542;SDS011;1116;51.502;7.414;2024-02-26T12:51:17;7.20;;;6.50;;
2542;SDS011;1116;51.502;7.414;2024-02-26T12:53:48;7.53;;;6.80;;
2542;SDS011;1116;51.502;7.414;2024-02-26T12:56:19;7.47;;;6.27;;
2542;SDS011;1116;51.502;7.414;2024-02-26T12:58:53;7.33;;;6.50;;
2542;SDS011;1116;51.502;7.414;2024-02-26T13:01:23;8.90;;;6.70;;
2542;SDS011;1116;51.502;7.414;2024-02-26T13:03:54;6.50;;;5.80;;
2542;SDS011;1116;51.502;7.414;2024-02-26T13:06:27;7.43;;;6.67;;
2542;SDS011;1116;51.502;7.414;2024-02-26T13:08:57;7.80;;;6.57;;
2542;SDS011;1116;51.502;7.414;2024-02-26T13:11:28;8.27;;;7.30;;
2542;SDS011;1116;51.502;7.414;2024-02-26T13:14:02;6.77;;;5.83;;
2542;SDS011;1116;51.502;7.414;2024-02-26T13:16:34;8.33;;;5.93;;
2542;SDS011;1116;51.502;7.414;2024-02-26T13:19:10;6.87;;;6.03;;
2542;SDS011;1116;51.502;7.414;2024-02-26T13:21:40;6.10;;;5.50;;
2542;SDS011;1116;51.502;7.414;2024-02-26T13:24:12;6.53;;;5.93;;
2542;SDS011;1116;51.502;7.414;2024-02-26T13:26:43;6.27;;;5.67;;
2542;SDS011;1116;51.502;7.414;2024-02-26T13:29:19;6.53;;;5.93;;
2542;SDS011;1116;51.502;7.414;2024-02-26T13:31:53;6.00;;;5.40;;
2542;SDS011;1116;51.502;7.414;2024-02-26T13:34:24;6.60;;;5.10;;
2542;SDS011;1116;51.502;7.414;2024-02-26T13:36:55;5.83;;;5.23;;
2542;SDS011;1116;51.502;7.414;2024-02-26T13:39:25;6.87;;;5.87;;
2542;SDS011;1116;51.502;7.414;2024-02-26T13:41:54;7.47;;;5.80;;
2542;SDS011;1116;51.502;7.414;2024-02-26T13:44:27;5.57;;;5.07;;
2542;SDS011;1116;51.502;7.414;2024-02-26T13:46:58;5.80;;;5.30;;
2542;SDS011;1116;51.502;7.414;2024-02-26T13:49:28;6.30;;;5.70;;
2542;SDS011;1116;51.502;7.414;2024-02-26T13:51:58;7.43;;;6.10;;
2542;SDS011;1116;51.502;7.414;2024-02-26T13:54:28;8.90;;;6.33;;
2542;SDS011;1116;51.502;7.414;2024-02-26T13:56:59;7.40;;;6.67;;
2542;SDS011;1116;51.502;7.414;2024-02-26T13:59:32;7.87;;;7.03;;
2542;SDS011;1116;51.502;7.414;2024-02-26T14:02:02;6.90;;;6.20;;
2542;SDS011;1116;51.502;7.414;2024-02-26T14:04:32;6.13;;;5.53;;
2542;SDS011;1116;51.502;7.414;2024-02-26T14:07:03;6.03;;;5.50;;
2542;SDS011;1116;51.502;7.414;2024-02-26T14:09:34;6.70;;;5.87;;
2542;SDS011;1116;51.502;7.414;2024-02-26T14:12:15;6.77;;;5.70;;
2542;SDS011;1116;51.502;7.414;2024-02-26T14:14:53;7.73;;;6.70;;
2542;SDS011;1116;51.502;7.414;2024-02-26T14:17:25;8.40;;;7.60;;
2542;SDS011;1116;51.502;7.414;2024-02-26T14:19:57;7.70;;;6.43;;
2542;SDS011;1116;51.502;7.414;2024-02-26T14:22:27;7.80;;;6.90;;
2542;SDS011;1116;51.502;7.414;2024-02-26T14:24:57;8.03;;;6.93;;
2542;SDS011;1116;51.502;7.414;2024-02-26T14:27:28;9.33;;;7.07;;
2542;SDS011;1116;51.502;7.414;2024-02-26T14:30:01;7.80;;;6.60;;
2542;SDS011;1116;51.502;7.414;2024-02-26T14:32:32;7.07;;;6.20;;
2542;SDS011;1116;51.502;7.414;2024-02-26T14:35:05;7.03;;;6.33;;
2542;SDS011;1116;51.502;7.414;2024-02-26T14:37:42;7.43;;;5.87;;
2542;SDS011;1116;51.502;7.414;2024-02-26T14:40:14;7.10;;;6.20;;
2542;SDS011;1116;51.502;7.414;2024-02-26T14:42:45;6.63;;;5.67;;
2542;SDS011;1116;51.502;7.414;2024-02-26T14:45:18;6.07;;;5.33;;
2542;SDS011;1116;51.502;7.414;2024-02-26T14:47:48;6.10;;;5.50;;
2542;SDS011;1116;51.502;7.414;2024-02-26T14:50:18;7.60;;;5.47;;
2542;SDS011;1116;51.502;7.414;2024-02-26T14:52:49;6.07;;;5.17;;
2542;SDS011;1116;51.502;7.414;2024-02-26T14:55:19;7.77;;;5.47;;
2542;SDS011;1116;51.502;7.414;2024-02-26T14:57:49;5.93;;;5.00;;
2542;SDS011;1116;51.502;7.414;2024-02-26T15:00:24;5.07;;;4.57;;
2542;SDS011;1116;51.502;7.414;2024-02-26T15:02:54;5.33;;;4.83;;
2542;SDS011;1116;51.502;7.414;2024-02-26T15:05:24;5.30;;;4.80;;
2542;SDS011;1116;51.502;7.414;2024-02-26T15:07:54;5.93;;;5.33;;
2542;SDS011;1116;51.502;7.414;2024-02-26T15:10:25;4.63;;;4.10;;
2542;SDS011;1116;51.502;7.414;2024-02-26T15:12:55;5.17;;;4.67;;
2542;SDS011;1116;51.502;7.414;2024-02-26T15:15:28;4.70;;;4.17;;
2542;SDS011;1116;51.502;7.414;2024-02-26T15:17:59;5.30;;;4.33;;
2542;SDS011;1116;51.502;7.414;2024-02-26T15:20:31;4.30;;;3.57;;
2542;SDS011;1116;51.502;7.414;2024-02-26T15:23:01;4.53;;;4.13;;
2542;SDS011;1116;51.502;7.414;2024-02-26T15:25:31;5.80;;;4.30;;
2542;SDS011;1116;51.502;7.414;2024-02-26T15:28:01;7.07;;;4.30;;
2542;SDS011;1116;51.502;7.414;2024-02-26T15:30:35;4.67;;;3.53;;
2542;SDS011;1116;51.502;7.414;2024-02-26T15:33:05;7.30;;;4.00;;
2542;SDS011;1116;51.502;7.414;2024-02-26T15:35:36;3.40;;;3.10;;
2542;SDS011;1116;51.502;7.414;2024-02-26T15:38:09;4.10;;;3.67;;
2542;SDS011;1116;51.502;7.414;2024-02-26T15:40:40;3.83;;;3.50;;
2542;SDS011;1116;51.502;7.414;2024-02-26T15:43:13;4.00;;;3.60;;